createdAt,value
2023-08-17T00:02:16.057Z,1.63
2023-08-17T00:04:42.990Z,2.40
2023-08-17T00:07:09.871Z,1.90
2023-08-17T00:09:36.764Z,1.60
2023-08-17T00:12:03.982Z,2.10
2023-08-17T00:14:32.192Z,1.60
2023-08-17T00:16:59.002Z,2.17
2023-08-17T00:19:25.810Z,2.45
2023-08-17T00:21:53.398Z,2.15
2023-08-17T00:24:20.365Z,2.70
2023-08-17T00:26:47.345Z,2.88
2023-08-17T00:29:16.334Z,2.70
2023-08-17T00:31:43.425Z,2.30
2023-08-17T00:34:10.390Z,2.13
2023-08-17T00:36:37.416Z,2.80
2023-08-17T00:39:04.517Z,2.25
2023-08-17T00:41:32.056Z,2.30
2023-08-17T00:43:58.950Z,2.38
2023-08-17T00:46:26.402Z,2.67
2023-08-17T00:48:54.244Z,2.83
2023-08-17T00:51:22.015Z,2.28
2023-08-17T00:53:49.236Z,2.17
2023-08-17T00:56:16.201Z,2.30
2023-08-17T00:58:44.137Z,2.60
2023-08-17T01:01:11.549Z,1.92
2023-08-17T01:03:42.123Z,1.75
2023-08-17T01:06:09.716Z,2.00
2023-08-17T01:08:38.470Z,2.13
2023-08-17T01:11:26.189Z,2.20
2023-08-17T01:14:00.185Z,2.03
2023-08-17T01:16:40.403Z,2.00
2023-08-17T01:19:10.308Z,2.55
2023-08-17T01:21:44.418Z,2.42
2023-08-17T01:24:13.076Z,2.30
2023-08-17T01:26:39.940Z,2.40
2023-08-17T01:29:07.114Z,2.22
2023-08-17T01:31:42.168Z,2.40
2023-08-17T01:34:14.750Z,2.58
2023-08-17T01:36:48.317Z,2.25
2023-08-17T01:39:17.171Z,2.15
2023-08-17T01:41:46.798Z,2.47
2023-08-17T01:44:13.953Z,2.20
2023-08-17T01:46:41.022Z,2.50
2023-08-17T01:49:07.941Z,2.08
2023-08-17T01:51:34.830Z,2.35
2023-08-17T01:54:01.634Z,2.40
2023-08-17T01:56:28.539Z,2.78
2023-08-17T01:58:55.394Z,2.20
2023-08-17T02:01:22.244Z,2.63
2023-08-17T02:03:49.084Z,2.40
2023-08-17T02:06:15.904Z,2.15
2023-08-17T02:08:42.967Z,2.42
2023-08-17T02:11:11.441Z,2.83
2023-08-17T02:13:38.808Z,2.78
2023-08-17T02:16:06.479Z,2.50
2023-08-17T02:18:34.983Z,2.40
2023-08-17T02:21:02.242Z,2.97
2023-08-17T02:23:29.106Z,2.60
2023-08-17T02:25:56.041Z,2.20
2023-08-17T02:28:22.942Z,2.47
2023-08-17T02:30:50.466Z,2.10
2023-08-17T02:33:17.308Z,2.63
2023-08-17T02:35:44.366Z,2.40
2023-08-17T02:38:11.226Z,2.45
2023-08-17T02:40:38.075Z,2.58
2023-08-17T02:43:05.028Z,3.03
2023-08-17T02:45:31.980Z,2.90
2023-08-17T02:47:58.767Z,2.78
2023-08-17T02:50:25.613Z,2.90
2023-08-17T02:52:52.511Z,2.90
2023-08-17T02:55:19.343Z,2.78
2023-08-17T02:57:46.223Z,3.40
2023-08-17T03:00:13.793Z,2.58
2023-08-17T03:02:40.747Z,2.65
2023-08-17T03:05:07.892Z,2.90
2023-08-17T03:07:34.768Z,2.75
2023-08-17T03:10:01.586Z,2.83
2023-08-17T03:12:28.368Z,2.97
2023-08-17T03:14:55.189Z,2.53
2023-08-17T03:17:21.981Z,3.00
2023-08-17T03:19:48.809Z,3.00
2023-08-17T03:22:15.828Z,3.42
2023-08-17T03:24:42.673Z,3.50
2023-08-17T03:27:10.112Z,3.25
2023-08-17T03:29:36.946Z,3.33
2023-08-17T03:32:03.987Z,3.30
2023-08-17T03:34:30.993Z,3.30
2023-08-17T03:36:57.856Z,3.30
2023-08-17T03:39:24.744Z,3.88
2023-08-17T03:41:51.570Z,3.58
2023-08-17T03:44:18.547Z,3.20
2023-08-17T03:46:45.478Z,3.88
2023-08-17T03:49:12.841Z,3.80
2023-08-17T03:51:39.683Z,3.72
2023-08-17T03:54:06.564Z,4.22
2023-08-17T03:56:33.388Z,4.40
2023-08-17T03:59:00.819Z,4.50
2023-08-17T04:01:27.658Z,4.10
2023-08-17T04:03:54.582Z,4.40
2023-08-17T04:06:21.456Z,4.45
2023-08-17T04:08:48.290Z,4.35
2023-08-17T04:11:15.143Z,4.43
2023-08-17T04:13:41.913Z,4.28
2023-08-17T04:16:08.865Z,4.13
2023-08-17T04:18:35.729Z,4.07
2023-08-17T04:21:02.531Z,3.67
2023-08-17T04:23:29.335Z,4.47
2023-08-17T04:25:56.699Z,3.90
2023-08-17T04:28:23.603Z,3.58
2023-08-17T04:30:50.494Z,3.67
2023-08-17T04:33:17.356Z,3.60
2023-08-17T04:35:48.197Z,3.83
2023-08-17T04:38:15.497Z,4.28
2023-08-17T04:40:43.002Z,3.70
2023-08-17T04:43:12.071Z,4.10
2023-08-17T04:45:39.388Z,3.50
2023-08-17T04:48:07.786Z,3.90
2023-08-17T04:50:34.718Z,4.60
2023-08-17T04:53:01.683Z,3.63
2023-08-17T04:55:28.641Z,4.10
2023-08-17T04:57:55.479Z,3.92
2023-08-17T05:00:29.201Z,3.70
2023-08-17T05:02:59.486Z,3.30
2023-08-17T05:05:26.955Z,3.60
2023-08-17T05:07:54.238Z,3.58
2023-08-17T05:10:21.090Z,3.50
2023-08-17T05:12:48.312Z,3.60
2023-08-17T05:15:15.221Z,3.58
2023-08-17T05:17:42.148Z,3.80
2023-08-17T05:20:09.820Z,4.47
2023-08-17T05:22:36.648Z,4.13
2023-08-17T05:25:04.206Z,4.90
2023-08-17T05:27:31.156Z,4.50
2023-08-17T05:29:57.968Z,5.20
2023-08-17T05:32:24.871Z,4.63
2023-08-17T05:34:51.646Z,5.15
2023-08-17T05:37:19.285Z,5.05
2023-08-17T05:39:46.074Z,4.40
2023-08-17T05:42:13.007Z,4.70
2023-08-17T05:44:39.833Z,4.93
2023-08-17T05:47:06.710Z,4.93
2023-08-17T05:49:33.568Z,5.03
2023-08-17T05:52:00.450Z,4.80
2023-08-17T05:54:27.289Z,4.57
2023-08-17T05:56:54.086Z,4.60
2023-08-17T05:59:21.123Z,4.95
2023-08-17T06:01:47.974Z,5.20
2023-08-17T06:04:14.954Z,4.97
2023-08-17T06:06:41.884Z,5.10
2023-08-17T06:09:10.279Z,4.53
2023-08-17T06:11:37.349Z,4.43
2023-08-17T06:14:04.324Z,4.55
2023-08-17T06:16:31.449Z,4.10
2023-08-17T06:18:58.283Z,4.72
2023-08-17T06:21:25.193Z,3.88
2023-08-17T06:23:52.163Z,3.83
2023-08-17T06:26:19.876Z,4.00
2023-08-17T06:28:46.652Z,3.53
2023-08-17T06:31:16.528Z,4.88
2023-08-17T06:33:43.420Z,4.13
2023-08-17T06:36:10.256Z,3.72
2023-08-17T06:38:37.212Z,3.97
2023-08-17T06:41:04.059Z,4.53
2023-08-17T06:43:30.931Z,3.70
2023-08-17T06:45:57.856Z,3.40
2023-08-17T06:48:24.670Z,4.30
2023-08-17T06:50:51.507Z,3.67
2023-08-17T06:53:18.361Z,3.17
2023-08-17T06:55:45.396Z,3.22
2023-08-17T06:58:12.498Z,3.33
2023-08-17T07:00:42.089Z,3.03
2023-08-17T07:03:09.479Z,3.45
2023-08-17T07:05:36.613Z,3.10
2023-08-17T07:08:03.625Z,3.63
2023-08-17T07:10:30.469Z,3.22
2023-08-17T07:12:57.394Z,3.05
2023-08-17T07:15:24.248Z,3.00
2023-08-17T07:17:51.143Z,3.35
2023-08-17T07:20:18.167Z,3.33
2023-08-17T07:22:45.258Z,3.30
2023-08-17T07:25:12.171Z,3.88
2023-08-17T07:27:38.987Z,3.22
2023-08-17T07:30:06.495Z,3.35
2023-08-17T07:32:34.702Z,3.90
2023-08-17T07:35:01.690Z,3.47
2023-08-17T07:37:34.496Z,3.15
2023-08-17T07:40:01.931Z,4.15
2023-08-17T07:42:28.969Z,4.03
2023-08-17T07:44:55.986Z,3.75
2023-08-17T07:47:22.848Z,4.18
2023-08-17T07:49:50.049Z,4.07
2023-08-17T07:52:17.508Z,3.78
2023-08-17T07:54:44.449Z,3.67
2023-08-17T07:57:12.034Z,3.72
2023-08-17T07:59:38.862Z,3.75
2023-08-17T08:02:05.753Z,3.85
2023-08-17T08:04:32.751Z,4.43
2023-08-17T08:06:59.632Z,3.88
2023-08-17T08:09:26.430Z,3.60
2023-08-17T08:11:53.441Z,4.32
2023-08-17T08:14:20.316Z,3.65
2023-08-17T08:16:48.494Z,3.55
2023-08-17T08:19:15.273Z,3.97
2023-08-17T08:21:42.128Z,4.03
2023-08-17T08:24:17.740Z,3.72
2023-08-17T08:26:45.260Z,3.90
2023-08-17T08:29:12.324Z,4.18
2023-08-17T08:31:39.386Z,4.30
2023-08-17T08:34:06.281Z,4.72
2023-08-17T08:36:33.231Z,4.35
2023-08-17T08:39:00.124Z,4.22
2023-08-17T08:41:28.833Z,5.05
2023-08-17T08:43:55.928Z,5.07
2023-08-17T08:46:28.110Z,6.10
2023-08-17T08:48:55.918Z,4.88
2023-08-17T08:51:28.897Z,5.10
2023-08-17T08:54:06.418Z,5.28
2023-08-17T08:56:34.937Z,5.57
2023-08-17T08:59:05.872Z,5.57
2023-08-17T09:01:34.087Z,5.80
2023-08-17T09:04:04.433Z,5.50
2023-08-17T09:06:32.385Z,5.70
2023-08-17T09:09:00.018Z,5.82
2023-08-17T09:11:26.979Z,5.18
2023-08-17T09:13:54.903Z,5.50
2023-08-17T09:16:24.442Z,5.07
2023-08-17T09:18:55.447Z,6.22
2023-08-17T09:21:26.127Z,5.53
2023-08-17T09:23:59.215Z,4.93
2023-08-17T09:26:26.687Z,5.80
2023-08-17T09:28:55.691Z,5.60
2023-08-17T09:31:23.051Z,5.75
2023-08-17T09:33:51.634Z,5.68
2023-08-17T09:36:26.247Z,5.97
2023-08-17T09:38:53.109Z,5.57
2023-08-17T09:41:20.624Z,5.93
2023-08-17T09:43:49.007Z,6.53
2023-08-17T09:46:16.498Z,5.82
2023-08-17T09:48:49.190Z,5.90
2023-08-17T09:51:17.475Z,5.28
2023-08-17T09:53:44.677Z,5.57
2023-08-17T09:56:18.202Z,5.60
2023-08-17T09:58:45.288Z,6.28
2023-08-17T10:01:13.645Z,5.90
2023-08-17T10:03:46.565Z,5.80
2023-08-17T10:06:17.032Z,5.95
2023-08-17T10:08:46.689Z,5.97
2023-08-17T10:11:16.317Z,5.97
2023-08-17T10:14:04.306Z,5.95
2023-08-17T10:16:45.041Z,6.32
2023-08-17T10:19:20.603Z,6.40
2023-08-17T10:21:57.963Z,5.78
2023-08-17T10:24:24.909Z,6.10
2023-08-17T10:26:54.916Z,5.85
2023-08-17T10:29:24.855Z,6.45
2023-08-17T10:31:52.475Z,5.68
2023-08-17T10:34:19.899Z,6.60
2023-08-17T10:36:47.269Z,6.15
2023-08-17T10:39:28.750Z,6.25
2023-08-17T10:41:57.921Z,6.57
2023-08-17T10:44:47.592Z,6.40
2023-08-17T10:47:21.809Z,6.43
2023-08-17T10:49:59.466Z,6.20
2023-08-17T10:52:34.231Z,6.25
2023-08-17T10:55:02.782Z,6.05
2023-08-17T10:57:30.727Z,6.20
2023-08-17T11:00:07.625Z,6.60
2023-08-17T11:02:36.178Z,6.18
2023-08-17T11:05:04.825Z,5.90
2023-08-17T11:07:46.097Z,6.55
2023-08-17T11:10:19.473Z,6.30
2023-08-17T11:12:46.425Z,6.55
2023-08-17T11:15:13.660Z,6.25
2023-08-17T11:17:40.594Z,6.70
2023-08-17T11:20:15.112Z,6.10
2023-08-17T11:22:42.347Z,6.57
2023-08-17T11:25:09.729Z,5.97
2023-08-17T11:27:38.781Z,6.13
2023-08-17T11:30:07.028Z,6.13
2023-08-17T11:32:33.918Z,6.03
2023-08-17T11:35:00.772Z,6.23
2023-08-17T11:37:27.691Z,5.90
2023-08-17T11:39:54.626Z,5.68
2023-08-17T11:42:21.663Z,6.25
2023-08-17T11:44:50.041Z,6.85
2023-08-17T11:47:17.263Z,6.05
2023-08-17T11:49:44.270Z,6.13
2023-08-17T11:52:12.401Z,6.60
2023-08-17T11:54:43.140Z,6.18
2023-08-17T11:57:10.077Z,6.88
2023-08-17T11:59:37.447Z,6.00
2023-08-17T12:02:04.411Z,6.75
2023-08-17T12:04:35.152Z,6.25
2023-08-17T12:07:02.305Z,6.47
2023-08-17T12:09:29.290Z,6.50
2023-08-17T12:12:01.340Z,6.90
2023-08-17T12:14:31.622Z,6.60
2023-08-17T12:16:58.566Z,6.75
2023-08-17T12:19:28.347Z,6.50
2023-08-17T12:21:55.283Z,6.20
2023-08-17T12:24:25.316Z,6.68
2023-08-17T12:26:53.146Z,7.30
2023-08-17T12:29:21.507Z,6.93
2023-08-17T12:31:48.527Z,6.90
2023-08-17T12:34:15.864Z,6.57
2023-08-17T12:36:45.593Z,6.72
2023-08-17T12:39:12.674Z,7.05
2023-08-17T12:41:39.511Z,6.65
2023-08-17T12:44:06.597Z,6.60
2023-08-17T12:46:36.017Z,6.50
2023-08-17T12:49:03.007Z,7.63
2023-08-17T12:51:30.078Z,7.32
2023-08-17T12:53:57.485Z,6.90
2023-08-17T12:56:24.506Z,6.45
2023-08-17T12:58:51.463Z,6.55
2023-08-17T13:01:20.225Z,6.47
2023-08-17T13:03:47.105Z,7.22
2023-08-17T13:06:14.362Z,6.95
2023-08-17T13:08:41.197Z,7.20
2023-08-17T13:11:08.183Z,6.63
2023-08-17T13:13:35.033Z,6.78
2023-08-17T13:16:03.038Z,7.65
2023-08-17T13:18:31.473Z,7.53
2023-08-17T13:20:58.471Z,7.65
2023-08-17T13:23:25.381Z,7.72
2023-08-17T13:25:52.802Z,7.43
2023-08-17T13:28:19.612Z,7.55
2023-08-17T13:30:46.725Z,7.63
2023-08-17T13:33:14.125Z,7.50
2023-08-17T13:35:41.420Z,7.10
2023-08-17T13:38:08.317Z,7.13
2023-08-17T13:40:37.661Z,7.68
2023-08-17T13:43:04.937Z,7.35
2023-08-17T13:45:31.791Z,6.95
2023-08-17T13:48:03.385Z,6.93
2023-08-17T13:50:30.402Z,6.35
2023-08-17T13:52:57.295Z,6.55
2023-08-17T13:55:24.852Z,6.18
2023-08-17T13:57:54.192Z,6.57
2023-08-17T14:00:20.989Z,6.55
2023-08-17T14:02:48.041Z,6.45
2023-08-17T14:05:15.343Z,5.80
2023-08-17T14:07:42.283Z,6.57
2023-08-17T14:10:13.993Z,6.03
2023-08-17T14:12:48.690Z,6.22
2023-08-17T14:15:15.618Z,5.95
2023-08-17T14:17:42.519Z,5.93
2023-08-17T14:20:10.328Z,5.93
2023-08-17T14:22:37.430Z,6.75
2023-08-17T14:25:04.589Z,6.38
2023-08-17T14:27:31.463Z,6.35
2023-08-17T14:29:58.720Z,6.00
2023-08-17T14:32:25.853Z,6.50
2023-08-17T14:34:52.827Z,6.25
2023-08-17T14:37:24.928Z,6.07
2023-08-17T14:39:52.332Z,6.18
2023-08-17T14:42:19.676Z,6.20
2023-08-17T14:44:46.947Z,6.75
2023-08-17T14:47:15.045Z,6.50
2023-08-17T14:49:47.649Z,5.75
2023-08-17T14:52:14.602Z,6.75
2023-08-17T14:54:43.409Z,6.20
2023-08-17T14:57:10.642Z,6.78
2023-08-17T14:59:38.368Z,6.63
2023-08-17T15:02:05.512Z,6.30
2023-08-17T15:04:32.695Z,6.78
2023-08-17T15:06:59.583Z,6.40
2023-08-17T15:09:26.429Z,6.07
2023-08-17T15:11:53.435Z,6.20
2023-08-17T15:14:20.268Z,5.97
2023-08-17T15:16:47.287Z,6.35
2023-08-17T15:19:15.597Z,6.60
2023-08-17T15:21:42.727Z,6.57
2023-08-17T15:24:09.626Z,6.75
2023-08-17T15:26:36.502Z,6.57
2023-08-17T15:29:03.492Z,7.28
2023-08-17T15:31:30.432Z,6.15
2023-08-17T15:33:57.410Z,5.95
2023-08-17T15:36:25.339Z,6.18
2023-08-17T15:38:52.451Z,6.03
2023-08-17T15:41:20.165Z,5.90
2023-08-17T15:43:47.034Z,6.00
2023-08-17T15:46:13.934Z,6.07
2023-08-17T15:48:41.105Z,6.07
2023-08-17T15:51:08.029Z,5.40
2023-08-17T15:53:36.001Z,5.32
2023-08-17T15:56:02.907Z,6.50
2023-08-17T15:58:29.862Z,5.88
2023-08-17T16:00:56.709Z,6.20
2023-08-17T16:03:24.035Z,5.68
2023-08-17T16:05:51.071Z,6.20
2023-08-17T16:08:18.048Z,6.35
2023-08-17T16:10:48.130Z,5.28
2023-08-17T16:13:16.386Z,5.38
2023-08-17T16:15:43.334Z,4.72
2023-08-17T16:18:10.227Z,4.97
2023-08-17T16:20:37.116Z,5.15
2023-08-17T16:23:04.674Z,5.05
2023-08-17T16:25:33.838Z,4.97
2023-08-17T16:28:01.035Z,4.72
2023-08-17T16:30:27.829Z,4.72
2023-08-17T16:32:54.860Z,4.68
2023-08-17T16:35:21.977Z,4.90
2023-08-17T16:37:48.889Z,4.43
2023-08-17T16:40:31.964Z,4.85
2023-08-17T16:43:04.125Z,5.43
2023-08-17T16:45:31.922Z,4.43
2023-08-17T16:47:58.899Z,4.30
2023-08-17T16:50:26.129Z,4.45
2023-08-17T16:52:53.184Z,4.70
2023-08-17T16:55:20.127Z,4.10
2023-08-17T16:57:46.962Z,4.25
2023-08-17T17:00:17.331Z,4.22
2023-08-17T17:02:44.697Z,4.05
2023-08-17T17:05:11.679Z,4.40
2023-08-17T17:07:38.494Z,4.88
2023-08-17T17:10:05.716Z,4.45
2023-08-17T17:12:32.489Z,4.20
2023-08-17T17:14:59.455Z,3.80
2023-08-17T17:17:26.716Z,4.28
2023-08-17T17:19:53.982Z,5.65
2023-08-17T17:22:21.293Z,4.75
2023-08-17T17:24:48.113Z,4.20
2023-08-17T17:27:14.992Z,4.18
2023-08-17T17:29:41.890Z,4.43
2023-08-17T17:32:08.848Z,5.13
2023-08-17T17:34:35.854Z,3.97
2023-08-17T17:37:04.797Z,4.43
2023-08-17T17:39:31.601Z,4.55
2023-08-17T17:41:58.706Z,4.60
2023-08-17T17:44:25.977Z,4.90
2023-08-17T17:46:53.843Z,4.50
2023-08-17T17:49:21.719Z,4.75
2023-08-17T17:51:49.265Z,4.90
2023-08-17T17:54:16.480Z,4.57
2023-08-17T17:56:45.282Z,4.85
2023-08-17T17:59:12.655Z,4.25
2023-08-17T18:01:40.208Z,4.85
2023-08-17T18:04:07.545Z,4.30
2023-08-17T18:06:38.339Z,4.47
2023-08-17T18:09:08.445Z,5.60
2023-08-17T18:11:35.611Z,4.70
2023-08-17T18:14:03.159Z,5.65
2023-08-17T18:16:31.716Z,5.78
2023-08-17T18:18:58.912Z,6.25
2023-08-17T18:21:25.757Z,5.57
2023-08-17T18:23:52.602Z,5.30
2023-08-17T18:26:19.402Z,8.27
2023-08-17T18:28:46.362Z,6.05
2023-08-17T18:31:13.492Z,4.93
2023-08-17T18:33:41.380Z,5.35
2023-08-17T18:36:08.230Z,5.35
2023-08-17T18:38:35.062Z,6.03
2023-08-17T18:41:09.375Z,5.38
2023-08-17T18:43:37.526Z,5.30
2023-08-17T18:46:04.817Z,5.40
2023-08-17T18:48:32.124Z,4.63
2023-08-17T18:50:59.367Z,4.97
2023-08-17T18:53:26.295Z,5.22
2023-08-17T18:55:53.239Z,4.70
2023-08-17T18:58:21.679Z,5.85
2023-08-17T19:00:48.770Z,4.28
2023-08-17T19:03:16.003Z,4.38
2023-08-17T19:05:43.509Z,3.80
2023-08-17T19:08:10.314Z,3.80
2023-08-17T19:10:37.258Z,3.95
2023-08-17T19:13:04.411Z,3.92
2023-08-17T19:15:31.588Z,4.28
2023-08-17T19:17:58.690Z,4.35
2023-08-17T19:20:25.604Z,4.05
2023-08-17T19:22:56.761Z,4.18
2023-08-17T19:25:24.350Z,4.50
2023-08-17T19:27:51.244Z,4.05
2023-08-17T19:30:20.759Z,4.28
2023-08-17T19:32:47.686Z,4.47
2023-08-17T19:35:16.121Z,4.13
2023-08-17T19:37:43.270Z,4.35
2023-08-17T19:40:10.813Z,4.57
2023-08-17T19:42:37.716Z,3.53
2023-08-17T19:45:05.475Z,3.65
2023-08-17T19:47:32.660Z,3.75
2023-08-17T19:49:59.656Z,4.28
2023-08-17T19:52:26.484Z,4.05
2023-08-17T19:54:53.419Z,4.00
2023-08-17T19:57:21.316Z,4.75
2023-08-17T19:59:50.512Z,5.00
2023-08-17T20:02:17.441Z,4.53
2023-08-17T20:04:46.028Z,4.25
2023-08-17T20:07:12.932Z,4.88
2023-08-17T20:09:39.874Z,4.20
2023-08-17T20:12:07.420Z,4.70
2023-08-17T20:14:36.155Z,4.47
2023-08-17T20:17:03.275Z,4.32
2023-08-17T20:19:33.650Z,4.60
2023-08-17T20:22:02.111Z,4.93
2023-08-17T20:24:29.043Z,5.32
2023-08-17T20:26:56.320Z,4.75
2023-08-17T20:29:23.674Z,5.00
2023-08-17T20:31:51.360Z,4.90
2023-08-17T20:34:21.059Z,5.13
2023-08-17T20:36:52.171Z,5.45
2023-08-17T20:39:21.788Z,5.95
2023-08-17T20:41:48.919Z,6.03
2023-08-17T20:44:15.870Z,5.68
2023-08-17T20:46:42.724Z,6.13
2023-08-17T20:49:09.618Z,6.13
2023-08-17T20:51:36.594Z,5.97
2023-08-17T20:54:03.988Z,6.50
2023-08-17T20:56:30.938Z,6.82
2023-08-17T20:58:57.800Z,7.18
2023-08-17T21:01:24.860Z,6.70
2023-08-17T21:03:51.991Z,6.60
2023-08-17T21:06:22.166Z,6.82
2023-08-17T21:08:49.258Z,7.22
2023-08-17T21:11:17.035Z,6.90
2023-08-17T21:13:44.128Z,6.50
2023-08-17T21:16:11.324Z,6.65
2023-08-17T21:18:38.531Z,7.13
2023-08-17T21:21:05.791Z,7.10
2023-08-17T21:23:33.778Z,7.00
2023-08-17T21:26:00.850Z,6.45
2023-08-17T21:28:27.954Z,6.45
2023-08-17T21:31:03.210Z,7.20
2023-08-17T21:33:31.205Z,6.68
2023-08-17T21:35:59.927Z,7.53
2023-08-17T21:38:27.362Z,7.60
2023-08-17T21:41:01.702Z,7.32
2023-08-17T21:43:38.244Z,6.47
2023-08-17T21:46:05.093Z,6.65
2023-08-17T21:48:32.047Z,6.93
2023-08-17T21:50:59.036Z,6.90
2023-08-17T21:53:26.013Z,7.60
2023-08-17T21:55:53.318Z,7.22
2023-08-17T21:58:20.872Z,6.25
2023-08-17T22:00:48.593Z,7.70
2023-08-17T22:03:16.747Z,6.90
2023-08-17T22:05:47.813Z,7.20
2023-08-17T22:08:15.750Z,6.60
2023-08-17T22:10:43.290Z,6.57
2023-08-17T22:13:10.516Z,6.40
2023-08-17T22:15:37.563Z,6.97
2023-08-17T22:18:04.980Z,6.40
2023-08-17T22:20:31.988Z,6.03
2023-08-17T22:22:59.033Z,6.30
2023-08-17T22:25:25.918Z,5.93
2023-08-17T22:27:52.888Z,6.07
2023-08-17T22:30:20.363Z,5.95
2023-08-17T22:32:47.604Z,5.50
2023-08-17T22:35:15.232Z,5.57
2023-08-17T22:37:42.169Z,5.47
2023-08-17T22:40:09.442Z,4.90
2023-08-17T22:42:37.068Z,5.85
2023-08-17T22:45:04.451Z,5.13
2023-08-17T22:47:32.487Z,4.80
2023-08-17T22:49:59.877Z,4.90
2023-08-17T22:52:26.902Z,5.13
2023-08-17T22:54:53.957Z,5.18
2023-08-17T22:57:20.975Z,4.88
2023-08-17T22:59:48.027Z,5.25
2023-08-17T23:02:14.908Z,5.40
2023-08-17T23:04:41.749Z,5.15
2023-08-17T23:07:08.593Z,5.22
2023-08-17T23:09:37.039Z,4.88
2023-08-17T23:12:07.523Z,5.57
2023-08-17T23:14:35.691Z,5.55
2023-08-17T23:17:02.689Z,5.10
2023-08-17T23:19:29.515Z,5.15
2023-08-17T23:21:58.996Z,5.78
2023-08-17T23:24:26.080Z,5.10
2023-08-17T23:26:52.925Z,5.30
2023-08-17T23:29:19.816Z,5.40
2023-08-17T23:31:46.882Z,5.32
2023-08-17T23:34:14.063Z,5.18
2023-08-17T23:36:40.969Z,5.35
2023-08-17T23:39:07.896Z,5.05
2023-08-17T23:41:34.981Z,4.75
2023-08-17T23:44:02.278Z,5.32
2023-08-17T23:46:29.368Z,5.43
2023-08-17T23:48:56.471Z,6.50
2023-08-17T23:51:23.496Z,6.60
2023-08-17T23:53:51.104Z,6.25
2023-08-17T23:56:18.134Z,6.57
2023-08-17T23:58:44.964Z,6.20
